Time;durP1;ratioP1;P1;durP2;ratioP2;P2;SDS_P1;SDS_P2;PMS_P1;PMS_P2;Temp;Humidity;BMP_temperature;BMP_pressure;BME280_temperature;BME280_humidity;BME280_pressure;Samples;Min_cycle;Max_cycle;Signal;HPM_P1;HPM_P2
2022/05/11 04:03:41;;;;;;;15.98;9.30;;;;;;;;;;5000975;28;20043;-80
2022/05/11 04:06:10;;;;;;;17.70;9.88;;;;;;;;;;4997791;28;20049;-80
2022/05/11 04:08:38;;;;;;;16.73;8.82;;;;;;;;;;4996944;28;20054;-81
2022/05/11 04:11:06;;;;;;;16.05;8.77;;;;;;;;;;4976919;28;20480;-80
2022/05/11 04:13:34;;;;;;;15.98;9.50;;;;;;;;;;4991932;28;20044;-80
2022/05/11 04:16:02;;;;;;;14.52;8.32;;;;;;;;;;4996850;28;20053;-80
2022/05/11 04:18:30;;;;;;;15.40;8.68;;;;;;;;;;5011225;28;20058;-80
2022/05/11 04:20:58;;;;;;;16.88;9.00;;;;;;;;;;5015654;28;20077;-80
2022/05/11 04:23:26;;;;;;;14.98;9.25;;;;;;;;;;4988510;28;20058;-79
2022/05/11 04:25:55;;;;;;;17.27;9.90;;;;;;;;;;5005323;28;20050;-80
2022/05/11 04:28:24;;;;;;;13.82;9.15;;;;;;;;;;5003645;28;20050;-80
2022/05/11 04:31:03;;;;;;;13.77;8.27;;;;;;;;;;4997294;28;20056;-81
2022/05/11 04:33:33;;;;;;;14.68;8.75;;;;;;;;;;5000636;28;20057;-81
2022/05/11 04:36:01;;;;;;;14.10;9.07;;;;;;;;;;4992967;28;20105;-80
2022/05/11 04:38:28;;;;;;;15.02;9.32;;;;;;;;;;5015717;28;20060;-80
2022/05/11 04:40:56;;;;;;;14.60;8.48;;;;;;;;;;5000140;28;20412;-80
2022/05/11 04:43:24;;;;;;;12.45;8.20;;;;;;;;;;4999499;28;20150;-80
2022/05/11 04:45:52;;;;;;;15.18;8.23;;;;;;;;;;5013812;28;20128;-81
2022/05/11 04:48:20;;;;;;;13.55;8.68;;;;;;;;;;4978161;28;20154;-82
2022/05/11 04:50:48;;;;;;;13.18;8.77;;;;;;;;;;4985804;28;20042;-81
2022/05/11 07:00:11;;;;;;;20.65;11.20;;;;;;;;;;5005650;28;20073;-81
2022/05/11 07:02:40;;;;;;;16.85;10.65;;;;;;;;;;4981494;28;20042;-80
2022/05/11 07:05:09;;;;;;;20.70;12.20;;;;;;;;;;5017733;28;20053;-81
2022/05/11 07:07:39;;;;;;;19.13;11.02;;;;;;;;;;5003904;28;20046;-81
2022/05/11 07:10:07;;;;;;;18.50;10.82;;;;;;;;;;4977304;28;20050;-81
2022/05/11 07:12:38;;;;;;;19.40;11.40;;;;;;;;;;4983709;28;20103;-81
2022/05/11 07:15:08;;;;;;;21.05;12.48;;;;;;;;;;5001295;28;20065;-80
2022/05/11 07:17:39;;;;;;;20.98;12.18;;;;;;;;;;4995531;28;20053;-82
2022/05/11 07:20:29;;;;;;;18.85;11.63;;;;;;;;;;4967681;28;20046;-82
2022/05/11 07:23:02;;;;;;;27.48;11.57;;;;;;;;;;4980283;28;20061;-81
2022/05/11 07:25:42;;;;;;;16.63;10.95;;;;;;;;;;4996261;28;20620;-81
2022/05/11 07:28:22;;;;;;;17.30;11.23;;;;;;;;;;4992950;28;20058;-81
2022/05/11 07:30:51;;;;;;;19.88;11.23;;;;;;;;;;5004270;28;20046;-81
2022/05/11 07:33:18;;;;;;;18.02;11.23;;;;;;;;;;4990587;28;20049;-81
2022/05/11 07:35:46;;;;;;;16.27;10.48;;;;;;;;;;5010875;28;20061;-81
2022/05/11 07:38:17;;;;;;;16.67;10.57;;;;;;;;;;4963568;28;20058;-81
2022/05/11 07:40:46;;;;;;;18.42;11.07;;;;;;;;;;5002230;28;20069;-81
2022/05/11 07:43:16;;;;;;;14.90;9.63;;;;;;;;;;4999297;28;20100;-81
2022/05/11 07:45:49;;;;;;;17.30;11.00;;;;;;;;;;5000756;28;20046;-81
2022/05/11 07:48:20;;;;;;;15.68;10.60;;;;;;;;;;5000623;28;20062;-81
2022/05/11 07:50:52;;;;;;;14.13;9.15;;;;;;;;;;4999639;28;20124;-81
2022/05/11 07:53:20;;;;;;;21.70;9.82;;;;;;;;;;5017986;28;20077;-81
2022/05/11 07:59:51;;;;;;;13.80;9.07;;;;;;;;;;5000801;28;20928;-81
2022/05/11 08:01:22;;;;;;;16.80;9.65;;;;;;;;;;4999656;28;20049;-81
2022/05/11 08:03:50;;;;;;;22.10;9.10;;;;;;;;;;5004251;28;20599;-80
2022/05/11 08:06:19;;;;;;;15.80;8.38;;;;;;;;;;5016652;28;20136;-81
2022/05/11 08:08:46;;;;;;;13.68;7.43;;;;;;;;;;5001622;28;20081;-81
2022/05/11 08:11:14;;;;;;;14.00;7.70;;;;;;;;;;4999857;28;20059;-82
2022/05/11 08:13:42;;;;;;;13.52;7.75;;;;;;;;;;5015321;28;20042;-80
2022/05/11 08:16:10;;;;;;;11.50;7.53;;;;;;;;;;4973759;28;20050;-81
2022/05/11 08:18:38;;;;;;;16.38;7.38;;;;;;;;;;4994679;28;20069;-81
2022/05/11 08:21:06;;;;;;;15.40;8.50;;;;;;;;;;4999257;28;20613;-81
2022/05/11 08:23:34;;;;;;;15.25;7.82;;;;;;;;;;5015885;28;20046;-81
2022/05/11 08:26:02;;;;;;;19.13;8.30;;;;;;;;;;5001551;28;20057;-80
2022/05/11 08:28:30;;;;;;;14.73;7.82;;;;;;;;;;4981227;28;20943;-81
2022/05/11 08:33:44;;;;;;;14.02;7.70;;;;;;;;;;4999914;28;20113;-81
2022/05/11 08:36:32;;;;;;;13.90;7.03;;;;;;;;;;4992927;28;21021;-81
2022/05/11 08:39:00;;;;;;;17.90;7.82;;;;;;;;;;4976055;28;20156;-80
2022/05/11 08:41:45;;;;;;;15.55;7.68;;;;;;;;;;4998647;28;20057;-80
2022/05/11 08:44:14;;;;;;;15.57;7.75;;;;;;;;;;5009212;28;20470;-81
2022/05/11 08:47:06;;;;;;;13.98;7.38;;;;;;;;;;4998191;28;20050;-81
2022/05/11 08:49:46;;;;;;;12.05;7.28;;;;;;;;;;4975682;28;20061;-81
2022/05/11 08:52:24;;;;;;;13.60;8.00;;;;;;;;;;5010636;28;20054;-81
2022/05/11 08:55:00;;;;;;;13.35;6.93;;;;;;;;;;5015409;28;20052;-81
2022/05/11 08:57:28;;;;;;;13.82;8.10;;;;;;;;;;4991938;28;20062;-81
2022/05/11 09:00:05;;;;;;;14.20;7.07;;;;;;;;;;5001834;28;20046;-81
2022/05/11 09:02:44;;;;;;;18.38;7.25;;;;;;;;;;4983898;28;20058;-81
2022/05/11 09:05:18;;;;;;;9.52;6.10;;;;;;;;;;4998171;28;20058;-81
2022/05/11 09:07:52;;;;;;;12.75;7.55;;;;;;;;;;4994614;28;20046;-80
2022/05/11 09:10:29;;;;;;;13.65;7.63;;;;;;;;;;4980553;28;20573;-81
2022/05/11 09:13:02;;;;;;;16.05;6.97;;;;;;;;;;4998273;28;20058;-80
2022/05/11 09:15:53;;;;;;;13.13;7.13;;;;;;;;;;5000493;28;20049;-81
2022/05/11 09:18:21;;;;;;;12.77;7.13;;;;;;;;;;4975040;28;20430;-80
2022/05/11 09:20:52;;;;;;;16.40;8.00;;;;;;;;;;4981570;28;20042;-81
2022/05/11 09:23:33;;;;;;;12.18;7.40;;;;;;;;;;5001863;28;20111;-81
2022/05/11 09:26:07;;;;;;;14.50;6.82;;;;;;;;;;5001331;28;20034;-81
2022/05/11 09:28:41;;;;;;;12.50;7.57;;;;;;;;;;5031363;28;20050;-81
2022/05/11 09:31:16;;;;;;;11.25;7.05;;;;;;;;;;5016831;28;20527;-81
2022/05/11 09:34:00;;;;;;;14.55;7.30;;;;;;;;;;5021143;28;20038;-80
2022/05/11 09:37:03;;;;;;;12.05;6.28;;;;;;;;;;5023548;28;20042;-81
2022/05/11 09:39:33;;;;;;;13.77;7.20;;;;;;;;;;5001215;28;20042;-81
2022/05/11 09:42:17;;;;;;;11.98;6.53;;;;;;;;;;4999888;28;20404;-81
2022/05/11 09:44:48;;;;;;;15.50;6.68;;;;;;;;;;4992078;28;20061;-81
2022/05/11 09:47:27;;;;;;;10.18;6.30;;;;;;;;;;4998969;28;20512;-81
2022/05/11 09:50:17;;;;;;;11.25;6.30;;;;;;;;;;4993803;28;20058;-81
2022/05/11 09:52:46;;;;;;;13.07;6.65;;;;;;;;;;5008973;28;20050;-81
2022/05/11 09:55:40;;;;;;;11.95;6.05;;;;;;;;;;4995997;28;20077;-81
2022/05/11 09:58:08;;;;;;;11.00;6.35;;;;;;;;;;4993248;28;20468;-81
2022/05/11 10:00:42;;;;;;;14.32;6.05;;;;;;;;;;4981830;28;20043;-81
2022/05/11 10:03:13;;;;;;;11.20;6.35;;;;;;;;;;4974718;28;20126;-81
2022/05/11 10:05:47;;;;;;;10.55;5.82;;;;;;;;;;5000634;28;20057;-81
2022/05/11 10:08:31;;;;;;;9.68;6.22;;;;;;;;;;4997619;28;20833;-81
2022/05/11 10:11:06;;;;;;;8.80;5.50;;;;;;;;;;4979709;28;20077;-81
2022/05/11 10:13:55;;;;;;;8.35;5.28;;;;;;;;;;4998741;28;20057;-81
2022/05/11 10:22:36;;;;;;;6.70;4.20;;;;;;;;;;5011931;28;20073;-81
2022/05/11 10:25:15;;;;;;;7.82;4.13;;;;;;;;;;4998643;28;20076;-81
2022/05/11 10:27:43;;;;;;;9.02;4.20;;;;;;;;;;4999483;28;20058;-81
2022/05/11 10:30:37;;;;;;;7.82;4.05;;;;;;;;;;4978702;28;20070;-81
2022/05/11 10:33:08;;;;;;;8.55;4.55;;;;;;;;;;4991879;28;20050;-81
2022/05/11 10:36:04;;;;;;;9.35;4.78;;;;;;;;;;4996405;28;20050;-82
2022/05/11 10:38:48;;;;;;;9.20;4.93;;;;;;;;;;5008819;28;20060;-82
2022/05/11 10:41:50;;;;;;;8.18;3.45;;;;;;;;;;4995696;28;20128;-82
2022/05/11 10:44:34;;;;;;;7.80;4.60;;;;;;;;;;4989777;28;20042;-81
2022/05/11 10:47:15;;;;;;;14.13;5.22;;;;;;;;;;4975357;28;20108;-81
2022/05/11 10:50:21;;;;;;;9.25;4.60;;;;;;;;;;4989761;28;20046;-81
2022/05/11 10:52:52;;;;;;;11.85;4.88;;;;;;;;;;4998049;28;20043;-81
2022/05/11 10:56:05;;;;;;;7.93;4.35;;;;;;;;;;4990740;28;20057;-81
2022/05/11 10:58:46;;;;;;;8.75;3.75;;;;;;;;;;4975024;28;20051;-81
2022/05/11 11:01:16;;;;;;;7.13;4.40;;;;;;;;;;4990834;28;20062;-81
2022/05/11 11:04:12;;;;;;;6.90;3.90;;;;;;;;;;4996265;28;20038;-81
2022/05/11 11:09:54;;;;;;;9.48;4.57;;;;;;;;;;4998361;28;19926;-83
2022/05/11 11:12:31;;;;;;;;;;;;;;;;;;4925925;29;20059;-81
2022/05/11 11:15:01;;;;;;;8.23;4.43;;;;;;;;;;4930600;28;19938;-81
2022/05/11 11:17:28;;;;;;;7.47;4.32;;;;;;;;;;4929467;29;20147;-81
2022/05/11 11:20:00;;;;;;;9.23;4.97;;;;;;;;;;4933718;29;20055;-81
2022/05/11 11:22:28;;;;;;;8.10;4.68;;;;;;;;;;4930725;29;20095;-82
2022/05/11 11:25:14;;;;;;;8.68;4.20;;;;;;;;;;4933787;29;20059;-83
2022/05/11 11:28:09;;;;;;;7.78;4.50;;;;;;;;;;4925343;29;20060;-81
2022/05/11 11:30:38;;;;;;;7.30;4.30;;;;;;;;;;4926788;29;20088;-81
2022/05/11 11:33:10;;;;;;;10.00;4.38;;;;;;;;;;4927965;29;20040;-81
2022/05/11 11:35:41;;;;;;;11.35;4.88;;;;;;;;;;4928581;29;20059;-81
2022/05/11 11:38:21;;;;;;;8.73;4.13;;;;;;;;;;4929887;29;20058;-81
2022/05/11 11:41:08;;;;;;;7.05;3.90;;;;;;;;;;4927498;29;20156;-81
2022/05/11 11:43:57;;;;;;;7.03;4.28;;;;;;;;;;4928809;29;20204;-82
2022/05/11 11:46:34;;;;;;;7.82;4.45;;;;;;;;;;4925775;29;20052;-82
2022/05/11 11:49:08;;;;;;;7.93;4.20;;;;;;;;;;4948429;28;20494;-82
2022/05/11 11:52:07;;;;;;;10.02;4.55;;;;;;;;;;4994315;28;20054;-81
2022/05/11 11:54:39;;;;;;;9.52;4.10;;;;;;;;;;4939037;28;20070;-81
2022/05/11 11:57:13;;;;;;;8.10;4.43;;;;;;;;;;4972443;28;20064;-81
2022/05/11 11:59:52;;;;;;;8.45;4.22;;;;;;;;;;4973260;28;20066;-81
2022/05/11 12:02:33;;;;;;;8.80;3.85;;;;;;;;;;4966883;28;20523;-82
2022/05/11 12:05:08;;;;;;;10.70;4.15;;;;;;;;;;4972179;28;20059;-81
2022/05/11 12:16:56;;;;;;;7.78;3.97;;;;;;;;;;4989411;28;20170;-81
2022/05/11 12:19:28;;;;;;;10.50;4.13;;;;;;;;;;4958085;28;20147;-81
2022/05/11 12:22:14;;;;;;;10.45;4.15;;;;;;;;;;4971804;28;20240;-81
2022/05/11 12:24:45;;;;;;;9.90;4.43;;;;;;;;;;4956035;28;20082;-81
2022/05/11 12:27:23;;;;;;;6.25;3.83;;;;;;;;;;4972105;28;20054;-81
2022/05/11 12:29:59;;;;;;;6.13;3.80;;;;;;;;;;4970826;28;20107;-81
2022/05/11 12:32:36;;;;;;;8.98;3.53;;;;;;;;;;5016626;28;20115;-81
2022/05/11 12:35:17;;;;;;;5.82;3.75;;;;;;;;;;4985624;28;20046;-81
2022/05/11 12:37:55;;;;;;;7.28;4.25;;;;;;;;;;5014449;28;20060;-82
2022/05/11 12:40:24;;;;;;;8.75;3.78;;;;;;;;;;5002672;28;20050;-81
2022/05/11 12:42:55;;;;;;;12.80;3.97;;;;;;;;;;4978627;28;20054;-81
2022/05/11 12:45:32;;;;;;;9.07;3.60;;;;;;;;;;5010654;28;20078;-82
2022/05/11 12:48:00;;;;;;;9.43;3.63;;;;;;;;;;5002682;28;20134;-82
2022/05/11 12:50:33;;;;;;;13.73;3.42;;;;;;;;;;5002515;28;20065;-82
2022/05/11 12:53:28;;;;;;;8.75;3.55;;;;;;;;;;5017097;28;20050;-82
2022/05/11 12:56:11;;;;;;;6.32;3.40;;;;;;;;;;5004747;28;20052;-81
2022/05/11 12:58:50;;;;;;;6.65;3.20;;;;;;;;;;5002445;28;20045;-81
2022/05/11 13:01:21;;;;;;;9.35;3.60;;;;;;;;;;4999331;28;20046;-81
2022/05/11 13:03:52;;;;;;;7.75;3.35;;;;;;;;;;4977740;28;20042;-81
2022/05/11 13:06:26;;;;;;;8.18;3.70;;;;;;;;;;5002749;28;20053;-81
2022/05/11 13:09:31;;;;;;;11.75;3.97;;;;;;;;;;5004558;28;20128;-81
2022/05/11 13:12:01;;;;;;;6.03;3.75;;;;;;;;;;5002075;28;20038;-81
2022/05/11 13:14:36;;;;;;;8.98;2.90;;;;;;;;;;5016632;28;20070;-81
2022/05/11 13:17:32;;;;;;;6.75;3.10;;;;;;;;;;4980765;28;20065;-81
2022/05/11 13:20:05;;;;;;;12.38;2.72;;;;;;;;;;5013748;28;20058;-83
2022/05/11 13:22:36;;;;;;;9.27;3.00;;;;;;;;;;4992508;28;20064;-81
2022/05/11 13:25:07;;;;;;;5.65;2.55;;;;;;;;;;5013274;28;20705;-81
2022/05/11 13:27:41;;;;;;;6.05;2.65;;;;;;;;;;5011799;28;20053;-81
2022/05/11 13:30:20;;;;;;;5.18;2.80;;;;;;;;;;4990556;28;20056;-81
2022/05/11 13:32:53;;;;;;;7.88;2.60;;;;;;;;;;4975206;28;20677;-82
2022/05/11 13:35:39;;;;;;;6.50;2.40;;;;;;;;;;4972525;28;20816;-80
2022/05/11 13:38:09;;;;;;;4.65;2.28;;;;;;;;;;5011725;28;20153;-80
2022/05/11 13:40:36;;;;;;;5.38;2.55;;;;;;;;;;4988345;28;20046;-81
2022/05/11 13:43:20;;;;;;;5.15;2.38;;;;;;;;;;4974759;28;20080;-84
2022/05/11 13:46:04;;;;;;;7.05;2.28;;;;;;;;;;4999845;28;20051;-83
2022/05/11 13:48:32;;;;;;;8.50;2.75;;;;;;;;;;4998322;28;20057;-85
2022/05/11 13:51:20;;;;;;;6.43;2.90;;;;;;;;;;4997880;28;20053;-85
2022/05/11 13:53:51;;;;;;;8.10;2.65;;;;;;;;;;4990526;28;20096;-83
2022/05/11 13:56:28;;;;;;;3.95;1.95;;;;;;;;;;5007366;28;20129;-85
2022/05/11 13:59:11;;;;;;;5.72;2.17;;;;;;;;;;4998396;28;20062;-82
2022/05/11 14:01:47;;;;;;;5.20;2.70;;;;;;;;;;4999214;28;20089;-84
2022/05/11 14:04:31;;;;;;;6.03;2.50;;;;;;;;;;5001353;28;20164;-85
2022/05/11 14:07:00;;;;;;;11.43;2.50;;;;;;;;;;5013435;28;20058;-82
2022/05/11 14:09:30;;;;;;;4.43;2.00;;;;;;;;;;4999230;28;20054;-82
2022/05/11 14:11:58;;;;;;;5.38;2.28;;;;;;;;;;4998722;28;20506;-81
2022/05/11 14:14:26;;;;;;;4.13;2.25;;;;;;;;;;4996552;28;20114;-81
2022/05/11 14:16:56;;;;;;;4.90;2.25;;;;;;;;;;4957491;28;20062;-82
2022/05/11 14:19:25;;;;;;;4.45;2.00;;;;;;;;;;4994999;28;20045;-81
2022/05/11 14:21:52;;;;;;;4.90;2.28;;;;;;;;;;4978424;28;20141;-82
2022/05/11 14:24:22;;;;;;;5.93;2.08;;;;;;;;;;4995090;28;20499;-83
2022/05/11 14:26:55;;;;;;;5.97;2.60;;;;;;;;;;4999754;28;20046;-82
2022/05/11 14:29:22;;;;;;;11.18;3.28;;;;;;;;;;5018720;28;20414;-83
2022/05/11 14:31:51;;;;;;;7.22;2.53;;;;;;;;;;4974967;28;20108;-82
2022/05/11 14:34:21;;;;;;;4.13;2.10;;;;;;;;;;4999522;28;20062;-85
2022/05/11 14:36:48;;;;;;;6.68;2.30;;;;;;;;;;4975001;28;20058;-83
2022/05/11 14:39:20;;;;;;;5.70;2.08;;;;;;;;;;4990598;28;20086;-82
2022/05/11 14:41:48;;;;;;;6.13;2.75;;;;;;;;;;4991883;28;20423;-82
2022/05/11 14:44:16;;;;;;;4.25;2.03;;;;;;;;;;4990976;28;20058;-82
2022/05/11 14:46:44;;;;;;;6.65;2.17;;;;;;;;;;4975094;28;20070;-82
2022/05/11 14:49:12;;;;;;;10.20;2.35;;;;;;;;;;4993274;28;20566;-82
2022/05/11 14:51:41;;;;;;;8.82;2.40;;;;;;;;;;5000259;28;20049;-82
2022/05/11 14:54:12;;;;;;;9.25;2.30;;;;;;;;;;5000334;28;20454;-82
2022/05/11 14:56:40;;;;;;;11.55;2.28;;;;;;;;;;5009419;28;20052;-82
2022/05/11 15:01:56;;;;;;;4.88;1.83;;;;;;;;;;5012631;28;20132;-82
2022/05/11 15:04:34;;;;;;;7.07;2.30;;;;;;;;;;5000389;28;20385;-80
2022/05/11 15:07:02;;;;;;;7.80;2.10;;;;;;;;;;5000775;28;20400;-80
2022/05/11 15:09:30;;;;;;;6.13;1.88;;;;;;;;;;5000371;28;20049;-80
2022/05/11 15:14:45;;;;;;;6.07;2.35;;;;;;;;;;4996482;28;20055;-81
2022/05/11 15:17:16;;;;;;;7.30;1.70;;;;;;;;;;4999601;28;20518;-81
2022/05/11 15:20:06;;;;;;;5.43;1.90;;;;;;;;;;4999538;28;20058;-81
2022/05/11 15:22:34;;;;;;;4.32;1.70;;;;;;;;;;5003237;28;20064;-81
2022/05/11 15:25:06;;;;;;;4.55;1.60;;;;;;;;;;4982470;28;20042;-81
2022/05/11 15:27:36;;;;;;;8.32;1.90;;;;;;;;;;4999488;28;20141;-80
2022/05/11 15:30:05;;;;;;;4.18;1.88;;;;;;;;;;5002382;28;20058;-81
2022/05/11 15:32:34;;;;;;;5.90;1.67;;;;;;;;;;4999273;28;20508;-81
2022/05/11 15:35:02;;;;;;;10.52;2.15;;;;;;;;;;5003428;28;20133;-81
2022/05/11 15:37:30;;;;;;;5.43;1.63;;;;;;;;;;5001342;28;20050;-81
2022/05/11 15:39:58;;;;;;;7.43;2.00;;;;;;;;;;5004674;28;20050;-81
2022/05/11 15:42:28;;;;;;;4.28;1.40;;;;;;;;;;5008080;28;20046;-81
2022/05/11 15:44:56;;;;;;;4.63;1.50;;;;;;;;;;5003433;28;20551;-81
2022/05/11 15:47:25;;;;;;;6.03;1.70;;;;;;;;;;5014599;28;20061;-82
2022/05/11 15:49:54;;;;;;;7.63;2.47;;;;;;;;;;5028362;28;20525;-80
2022/05/11 15:52:23;;;;;;;6.00;1.80;;;;;;;;;;5010833;28;20050;-81
2022/05/11 15:54:50;;;;;;;6.55;1.67;;;;;;;;;;4977792;28;20062;-81
2022/05/11 15:57:18;;;;;;;6.72;1.83;;;;;;;;;;5010178;28;20065;-82
2022/05/11 15:59:46;;;;;;;5.43;1.73;;;;;;;;;;5012195;28;20042;-82
2022/05/11 16:02:15;;;;;;;7.90;1.80;;;;;;;;;;5013594;28;20054;-82
2022/05/11 16:04:44;;;;;;;5.07;1.38;;;;;;;;;;5009997;28;20049;-83
2022/05/11 16:07:12;;;;;;;7.80;1.50;;;;;;;;;;5018157;28;20137;-83
2022/05/11 16:09:40;;;;;;;7.40;1.58;;;;;;;;;;4995683;28;20124;-82
2022/05/11 16:12:12;;;;;;;8.85;1.90;;;;;;;;;;5005291;28;20112;-82
2022/05/11 16:14:42;;;;;;;3.90;1.38;;;;;;;;;;4963920;28;20054;-82
2022/05/11 16:19:58;;;;;;;5.35;1.60;;;;;;;;;;5003076;28;20076;-83
2022/05/11 16:22:29;;;;;;;5.53;1.80;;;;;;;;;;5016236;28;20534;-82
2022/05/11 16:24:58;;;;;;;6.72;1.70;;;;;;;;;;5003770;28;20050;-80
2022/05/11 16:27:29;;;;;;;5.85;1.63;;;;;;;;;;5000930;28;20054;-82
2022/05/11 16:30:00;;;;;;;10.13;1.58;;;;;;;;;;4993776;28;20053;-84
2022/05/11 16:32:48;;;;;;;7.68;1.75;;;;;;;;;;4949164;28;20061;-81
2022/05/11 16:35:30;;;;;;;9.95;2.05;;;;;;;;;;4983284;28;20424;-80
2022/05/11 16:37:58;;;;;;;6.15;2.28;;;;;;;;;;5001094;28;20057;-80
2022/05/11 16:40:33;;;;;;;6.82;1.83;;;;;;;;;;4982512;28;20060;-80
2022/05/11 16:43:03;;;;;;;8.07;1.98;;;;;;;;;;5014282;28;20042;-80
2022/05/11 16:45:30;;;;;;;8.88;2.42;;;;;;;;;;4997439;28;20045;-80
2022/05/11 16:47:58;;;;;;;8.07;2.10;;;;;;;;;;4994505;28;20069;-78
2022/05/11 16:50:28;;;;;;;7.38;2.30;;;;;;;;;;5007594;28;20054;-78
2022/05/11 16:52:59;;;;;;;6.95;1.98;;;;;;;;;;4971908;28;20054;-79
2022/05/11 16:55:27;;;;;;;9.80;2.30;;;;;;;;;;4996448;28;20377;-80
2022/05/11 16:57:56;;;;;;;10.50;2.22;;;;;;;;;;5000361;28;20052;-81
2022/05/11 17:00:26;;;;;;;8.02;2.22;;;;;;;;;;4993125;28;20062;-79
2022/05/11 17:03:07;;;;;;;10.85;2.35;;;;;;;;;;4975030;28;20046;-79
2022/05/11 17:05:38;;;;;;;7.93;2.35;;;;;;;;;;4972828;28;20096;-78
2022/05/11 17:08:06;;;;;;;7.60;2.40;;;;;;;;;;5007505;28;20438;-79
2022/05/11 17:10:34;;;;;;;10.52;2.42;;;;;;;;;;4997185;28;20659;-79
2022/05/11 17:13:07;;;;;;;11.13;2.33;;;;;;;;;;4989426;28;20051;-80
2022/05/11 17:15:37;;;;;;;9.30;2.10;;;;;;;;;;4996349;28;20041;-81
2022/05/11 17:18:07;;;;;;;10.07;2.28;;;;;;;;;;5006654;28;20053;-81
2022/05/11 17:20:40;;;;;;;8.43;2.88;;;;;;;;;;4999522;28;20049;-82
2022/05/11 17:23:08;;;;;;;9.80;2.50;;;;;;;;;;4987318;28;20074;-84
2022/05/11 17:25:36;;;;;;;12.00;2.75;;;;;;;;;;4998891;28;20046;-84
2022/05/11 17:28:40;;;;;;;7.90;2.47;;;;;;;;;;4991532;28;20058;-83
2022/05/11 17:32:07;;;;;;;8.48;2.00;;;;;;;;;;4980517;28;20062;-83
2022/05/11 17:34:40;;;;;;;9.00;1.80;;;;;;;;;;4941417;28;20065;-83
2022/05/11 17:38:59;;;;;;;10.23;1.60;;;;;;;;;;4934795;29;20055;-86
2022/05/11 17:43:11;;;;;;;6.68;1.60;;;;;;;;;;4915347;29;20047;-86
2022/05/11 17:45:55;;;;;;;4.60;1.65;;;;;;;;;;4892282;29;20049;-85
2022/05/11 17:49:24;;;;;;;10.00;1.90;;;;;;;;;;4886808;29;20391;-82
2022/05/11 17:52:11;;;;;;;8.85;1.80;;;;;;;;;;4879035;29;20105;-83
2022/05/11 17:54:59;;;;;;;8.18;2.00;;;;;;;;;;4879944;29;20591;-86
2022/05/11 17:58:01;;;;;;;10.20;2.03;;;;;;;;;;4866929;29;20553;-86
2022/05/11 18:00:32;;;;;;;8.20;2.17;;;;;;;;;;4862234;29;20076;-81
2022/05/11 18:03:01;;;;;;;14.82;2.90;;;;;;;;;;4889929;29;20120;-81
2022/05/11 18:05:28;;;;;;;8.93;2.25;;;;;;;;;;4910917;29;20056;-85
2022/05/11 18:07:56;;;;;;;8.18;2.10;;;;;;;;;;4929614;29;20421;-82
2022/05/11 18:10:26;;;;;;;10.63;1.95;;;;;;;;;;4942231;28;20523;-84
2022/05/11 18:12:54;;;;;;;11.20;2.75;;;;;;;;;;4943236;28;20055;-82
2022/05/11 18:15:23;;;;;;;9.00;2.03;;;;;;;;;;4968422;28;20147;-82
2022/05/11 18:17:52;;;;;;;10.70;1.98;;;;;;;;;;4997142;28;20057;-81
2022/05/11 18:20:25;;;;;;;12.23;1.92;;;;;;;;;;4997008;28;20054;-82
2022/05/11 18:22:52;;;;;;;11.52;2.20;;;;;;;;;;4998678;28;20617;-82
2022/05/11 18:25:20;;;;;;;9.13;2.22;;;;;;;;;;5018010;28;20089;-83
2022/05/11 18:27:52;;;;;;;9.77;1.67;;;;;;;;;;5002110;28;20073;-85
2022/05/11 18:30:22;;;;;;;15.38;3.72;;;;;;;;;;4996342;28;20409;-86
2022/05/11 18:34:05;;;;;;;12.35;1.95;;;;;;;;;;5005416;28;20107;-85
2022/05/11 18:37:38;;;;;;;9.75;2.17;;;;;;;;;;4972394;28;20051;-84
2022/05/11 18:40:28;;;;;;;7.25;1.67;;;;;;;;;;4958741;28;20090;-83
2022/05/11 18:43:33;;;;;;;9.15;2.60;;;;;;;;;;4951676;28;20543;-83
2022/05/11 18:46:06;;;;;;;7.20;1.63;;;;;;;;;;4941407;28;20133;-82
2022/05/11 18:48:34;;;;;;;12.32;2.10;;;;;;;;;;4942400;28;20051;-81
2022/05/11 18:51:08;;;;;;;7.65;1.63;;;;;;;;;;4968566;28;20161;-82
2022/05/11 18:53:36;;;;;;;6.95;1.60;;;;;;;;;;4969386;28;20148;-82
2022/05/11 18:56:08;;;;;;;12.57;1.80;;;;;;;;;;4973793;28;21019;-83
2022/05/11 18:58:46;;;;;;;12.88;2.00;;;;;;;;;;4961233;28;20157;-82
2022/05/11 19:01:16;;;;;;;9.02;2.30;;;;;;;;;;4991589;28;20060;-83
2022/05/11 19:03:44;;;;;;;6.97;1.65;;;;;;;;;;4975780;28;20670;-82
2022/05/11 19:06:12;;;;;;;9.30;1.40;;;;;;;;;;4963676;28;20207;-83
2022/05/11 19:08:40;;;;;;;6.47;1.35;;;;;;;;;;5000560;28;20042;-82
2022/05/11 19:11:09;;;;;;;6.55;1.40;;;;;;;;;;5004790;28;20054;-83
2022/05/11 19:13:36;;;;;;;6.70;1.40;;;;;;;;;;5017468;28;20057;-84
2022/05/11 19:16:08;;;;;;;4.30;1.30;;;;;;;;;;4987527;28;20050;-85
2022/05/11 19:18:36;;;;;;;9.32;1.60;;;;;;;;;;4996605;28;20060;-83
2022/05/11 19:21:08;;;;;;;9.75;1.52;;;;;;;;;;4989697;28;20154;-85
2022/05/11 19:23:43;;;;;;;5.65;1.80;;;;;;;;;;5003933;28;20053;-86
2022/05/11 19:26:24;;;;;;;9.45;2.20;;;;;;;;;;4994509;28;20050;-85
2022/05/11 19:28:52;;;;;;;8.98;1.70;;;;;;;;;;4986285;28;20084;-85
2022/05/11 19:31:29;;;;;;;6.38;1.40;;;;;;;;;;4968275;28;20141;-84
2022/05/11 19:34:03;;;;;;;5.38;1.40;;;;;;;;;;5001976;28;20054;-85
2022/05/11 19:36:32;;;;;;;10.90;2.72;;;;;;;;;;5009587;28;20060;-85
2022/05/11 19:39:02;;;;;;;8.13;2.15;;;;;;;;;;4996243;28;20551;-85
2022/05/11 19:41:33;;;;;;;8.05;1.80;;;;;;;;;;4980576;28;20042;-85
2022/05/11 19:44:02;;;;;;;11.27;1.70;;;;;;;;;;4993544;28;20058;-85
2022/05/11 19:46:33;;;;;;;7.30;1.67;;;;;;;;;;4993929;28;20555;-85
2022/05/11 19:49:00;;;;;;;9.82;1.85;;;;;;;;;;5017009;28;20133;-84
2022/05/11 19:51:29;;;;;;;7.90;1.60;;;;;;;;;;5001968;28;20058;-84
2022/05/11 19:53:59;;;;;;;9.40;1.88;;;;;;;;;;4979061;28;20045;-83
2022/05/11 19:56:26;;;;;;;8.73;1.73;;;;;;;;;;5003745;28;20053;-83
2022/05/11 19:58:58;;;;;;;6.45;1.67;;;;;;;;;;4981469;28;20479;-83
2022/05/11 20:01:30;;;;;;;7.70;1.55;;;;;;;;;;4997860;28;20088;-84
2022/05/11 20:04:12;;;;;;;10.63;2.03;;;;;;;;;;4983334;28;20517;-85
2022/05/11 20:06:40;;;;;;;8.52;1.83;;;;;;;;;;4994137;28;20046;-85
2022/05/11 20:09:12;;;;;;;7.63;1.92;;;;;;;;;;4986078;28;20112;-85
2022/05/11 20:11:40;;;;;;;10.93;1.52;;;;;;;;;;5016187;28;20077;-86
2022/05/11 20:14:08;;;;;;;6.78;1.38;;;;;;;;;;4987901;28;20096;-85
2022/05/11 20:16:37;;;;;;;6.40;1.80;;;;;;;;;;5007526;28;20070;-84
2022/05/11 20:19:04;;;;;;;10.55;2.10;;;;;;;;;;4990335;28;20053;-84
2022/05/11 20:21:34;;;;;;;4.88;1.48;;;;;;;;;;4992051;28;20061;-82
2022/05/11 20:24:04;;;;;;;9.70;1.90;;;;;;;;;;5004748;28;20078;-82
2022/05/11 20:26:32;;;;;;;8.77;2.50;;;;;;;;;;4999505;28;20042;-79
2022/05/11 20:29:00;;;;;;;5.90;1.60;;;;;;;;;;5004703;28;20050;-83
2022/05/11 20:37:03;;;;;;;8.63;1.77;;;;;;;;;;5018705;28;20051;-83
2022/05/11 20:39:30;;;;;;;6.13;1.65;;;;;;;;;;5016135;28;20056;-83
2022/05/11 20:42:01;;;;;;;9.93;1.90;;;;;;;;;;5019740;28;20133;-84
2022/05/11 20:44:28;;;;;;;7.20;2.03;;;;;;;;;;5009613;28;20405;-84
2022/05/11 20:46:56;;;;;;;7.93;1.40;;;;;;;;;;5015803;28;20042;-83
2022/05/11 20:49:24;;;;;;;8.13;1.70;;;;;;;;;;4991701;28;20101;-83
2022/05/11 20:51:52;;;;;;;5.57;1.83;;;;;;;;;;5016420;28;20058;-85
2022/05/11 20:54:20;;;;;;;9.43;1.85;;;;;;;;;;5007103;28;20050;-84
2022/05/11 20:56:54;;;;;;;6.90;1.52;;;;;;;;;;5016088;28;20049;-84
2022/05/11 20:59:23;;;;;;;7.72;1.80;;;;;;;;;;4994781;28;20038;-84
2022/05/11 21:01:50;;;;;;;9.95;2.45;;;;;;;;;;5022745;28;20046;-84
2022/05/11 21:04:32;;;;;;;6.65;1.50;;;;;;;;;;4982777;28;20053;-85
2022/05/11 21:07:14;;;;;;;4.75;1.70;;;;;;;;;;4992969;28;20053;-84
2022/05/11 21:09:42;;;;;;;7.68;2.00;;;;;;;;;;5003318;28;20587;-84
2022/05/11 21:12:10;;;;;;;7.45;1.83;;;;;;;;;;4999583;28;20047;-81
2022/05/11 21:14:38;;;;;;;8.68;1.98;;;;;;;;;;4978871;28;20112;-80
2022/05/11 21:17:06;;;;;;;4.95;1.58;;;;;;;;;;4998028;28;20050;-81
2022/05/11 21:19:34;;;;;;;9.65;1.80;;;;;;;;;;5008867;28;20050;-83
2022/05/11 21:22:16;;;;;;;12.05;2.47;;;;;;;;;;5005598;28;20073;-83
2022/05/11 21:25:25;;;;;;;8.48;2.08;;;;;;;;;;4921534;29;20059;-85
2022/05/11 21:28:07;;;;;;;7.45;1.77;;;;;;;;;;4931497;29;20123;-85
2022/05/11 21:30:37;;;;;;;5.57;1.50;;;;;;;;;;4917726;29;20552;-83
2022/05/11 21:33:19;;;;;;;6.25;1.70;;;;;;;;;;4930120;29;20542;-82
2022/05/11 21:35:46;;;;;;;4.57;1.67;;;;;;;;;;4932356;29;20059;-80
2022/05/11 21:38:14;;;;;;;6.80;2.45;;;;;;;;;;4934418;29;20048;-82
2022/05/11 21:40:42;;;;;;;9.27;1.73;;;;;;;;;;4931832;29;20062;-81
2022/05/11 21:43:11;;;;;;;8.52;1.80;;;;;;;;;;4931484;29;20044;-80
2022/05/11 21:45:42;;;;;;;4.78;2.00;;;;;;;;;;4932147;29;20443;-81
2022/05/11 21:48:11;;;;;;;4.80;1.67;;;;;;;;;;4933141;29;20106;-82
2022/05/11 21:50:39;;;;;;;11.43;2.50;;;;;;;;;;4948496;28;20120;-83
2022/05/11 21:53:08;;;;;;;9.43;2.30;;;;;;;;;;4934609;29;20051;-82
2022/05/11 21:55:37;;;;;;;10.63;2.70;;;;;;;;;;4956499;28;20050;-80
2022/05/11 21:58:26;;;;;;;10.27;2.20;;;;;;;;;;4998729;28;20491;-79
2022/05/11 22:00:57;;;;;;;7.32;2.03;;;;;;;;;;4983667;28;20046;-79
2022/05/11 22:03:25;;;;;;;9.25;3.08;;;;;;;;;;5004700;28;20046;-80
2022/05/11 22:05:54;;;;;;;5.53;2.00;;;;;;;;;;5007764;28;20065;-80
2022/05/11 22:08:22;;;;;;;7.45;1.88;;;;;;;;;;5018007;28;20133;-82
2022/05/11 22:10:50;;;;;;;7.32;2.10;;;;;;;;;;5013211;28;20670;-80